Ottoman Nobility — TCDA2 — position and weather

sailwx.info

Track history (hours):
 
Tides and Currents Weather Stations Pressure Air Temp Water Temp Dewpoint Dewpoint Depression Visibility Wind Speed Wind Dir Waves Ship Positions

Ottoman Nobility

Last reported at 2014-Sep-01 01:15 UTC. Time now 2014-Sep-30 10:16 UTC.
Position N 01°11' E 103°39'.
Warning: this ship's position is 29 days out of date.

Length 269 m; draft 8.5 m.

Type: Ship. MMSI: 271000773.

Date/timePositionNaut miles runAvg speedWind from/ knotsBaromVisibWave heightAir tempDewpointWater temp
2014-Sep-01 01:15N 01°11' E 103°39'9 9.8
2014-Sep-01 00:22N 01°10' E 103°48'911.2
2014-Aug-31 23:33N 01°14' E 103°56'6 1.1
2014-Aug-31 18:15N 01°17' E 104°01'0 0.0
2014-Aug-31 15:06N 01°17' E 104°01'0 0.1
2014-Aug-31 14:30N 01°17' E 104°01'0 0.1
2014-Aug-31 13:21N 01°17' E 104°01'0 0.1
2014-Aug-31 12:30N 01°17' E 104°01'0 0.1
2014-Aug-31 11:18N 01°17' E 104°02'0 0.1
2014-Aug-31 10:33N 01°17' E 104°01'0 0.0
2014-Aug-31 09:27N 01°17' E 104°01'0 0.1
2014-Aug-31 08:30N 01°17' E 104°01'0 0.1
2014-Aug-31 07:33N 01°17' E 104°01'0 0.0
2014-Aug-31 05:30N 01°17' E 104°01'0 0.0
2014-Aug-31 03:28N 01°17' E 104°01'1 1.3
2014-Aug-31 02:33N 01°17' E 104°00'2 2.1
2014-Aug-31 01:33N 01°16' E 104°02'  
2014-Aug-24 13:07N 24°14' E 119°17'16 9.4
2014-Aug-24 11:26N 24°26' E 119°28'8 9.3
2014-Aug-24 10:33N 24°32' E 119°34'9 9.0
2014-Aug-24 09:33N 24°39' E 119°40'13 8.9
2014-Aug-24 08:04N 24°50' E 119°48'36510.0
2014-Aug-22 19:32N 29°58' E 123°29'  
Track history (hours):
 
Tides and Currents Weather Stations Pressure Air Temp Water Temp Dewpoint Dewpoint Depression Visibility Wind Speed Wind Dir Waves Ship Positions

Ottoman Nobility

Last reported at 2014-Sep-01 01:15 UTC. Time now 2014-Sep-30 10:16 UTC.
Position N 01°11' E 103°39'.
Warning: this ship's position is 29 days out of date.

Length 269 m; draft 8.5 m.

Type: Ship. MMSI: 271000773.

Date/timePositionNaut miles runAvg speedWind from/ knotsBaromVisibWave heightAir tempDewpointWater temp
2014-Sep-01 01:15N 01°11' E 103°39'9 9.8
2014-Sep-01 00:22N 01°10' E 103°48'911.2
2014-Aug-31 23:33N 01°14' E 103°56'6 1.1
2014-Aug-31 18:15N 01°17' E 104°01'0 0.0
2014-Aug-31 15:06N 01°17' E 104°01'0 0.1
2014-Aug-31 14:30N 01°17' E 104°01'0 0.1
2014-Aug-31 13:21N 01°17' E 104°01'0 0.1
2014-Aug-31 12:30N 01°17' E 104°01'0 0.1
2014-Aug-31 11:18N 01°17' E 104°02'0 0.1
2014-Aug-31 10:33N 01°17' E 104°01'0 0.0
2014-Aug-31 09:27N 01°17' E 104°01'0 0.1
2014-Aug-31 08:30N 01°17' E 104°01'0 0.1
2014-Aug-31 07:33N 01°17' E 104°01'0 0.0
2014-Aug-31 05:30N 01°17' E 104°01'0 0.0
2014-Aug-31 03:28N 01°17' E 104°01'1 1.3
2014-Aug-31 02:33N 01°17' E 104°00'2 2.1
2014-Aug-31 01:33N 01°16' E 104°02'  
2014-Aug-24 13:07N 24°14' E 119°17'16 9.4
2014-Aug-24 11:26N 24°26' E 119°28'8 9.3
2014-Aug-24 10:33N 24°32' E 119°34'9 9.0
2014-Aug-24 09:33N 24°39' E 119°40'13 8.9
2014-Aug-24 08:04N 24°50' E 119°48'36510.0
2014-Aug-22 19:32N 29°58' E 123°29'  

Dump ship's entire track history